sensor_id;sensor_type;location;lat;lon;timestamp;temperature;humidity
674;DHT22;319;48.764;9.174;2022-12-07T00:01:52;7.20;99.90
674;DHT22;319;48.764;9.174;2022-12-07T00:04:19;7.20;99.90
674;DHT22;319;48.764;9.174;2022-12-07T00:06:50;7.30;99.90
674;DHT22;319;48.764;9.174;2022-12-07T00:09:18;7.30;99.90
674;DHT22;319;48.764;9.174;2022-12-07T00:11:48;7.30;99.90
674;DHT22;319;48.764;9.174;2022-12-07T00:14:16;7.30;99.90
674;DHT22;319;48.764;9.174;2022-12-07T00:16:44;7.20;99.90
674;DHT22;319;48.764;9.174;2022-12-07T00:19:12;7.30;99.90
674;DHT22;319;48.764;9.174;2022-12-07T00:21:39;7.40;99.90
674;DHT22;319;48.764;9.174;2022-12-07T00:24:06;7.30;99.90
674;DHT22;319;48.764;9.174;2022-12-07T00:26:34;7.20;99.90
674;DHT22;319;48.764;9.174;2022-12-07T00:29:04;7.00;99.90
674;DHT22;319;48.764;9.174;2022-12-07T00:31:33;7.10;99.90
674;DHT22;319;48.764;9.174;2022-12-07T00:34:01;7.10;99.90
674;DHT22;319;48.764;9.174;2022-12-07T00:36:28;7.10;99.90
674;DHT22;319;48.764;9.174;2022-12-07T00:38:57;7.00;99.90
674;DHT22;319;48.764;9.174;2022-12-07T00:41:26;6.80;99.90
674;DHT22;319;48.764;9.174;2022-12-07T00:43:53;6.80;99.90
674;DHT22;319;48.764;9.174;2022-12-07T00:46:22;6.80;99.90
674;DHT22;319;48.764;9.174;2022-12-07T00:48:50;6.90;99.90
674;DHT22;319;48.764;9.174;2022-12-07T00:51:19;6.90;99.90
674;DHT22;319;48.764;9.174;2022-12-07T00:53:46;6.80;99.90
674;DHT22;319;48.764;9.174;2022-12-07T00:56:15;6.90;99.90
674;DHT22;319;48.764;9.174;2022-12-07T00:58:43;6.80;99.90
674;DHT22;319;48.764;9.174;2022-12-07T01:01:10;6.90;99.90
674;DHT22;319;48.764;9.174;2022-12-07T01:03:38;6.90;99.90
674;DHT22;319;48.764;9.174;2022-12-07T01:06:05;7.00;99.90
674;DHT22;319;48.764;9.174;2022-12-07T01:08:32;6.80;99.90
674;DHT22;319;48.764;9.174;2022-12-07T01:11:00;7.00;99.90
674;DHT22;319;48.764;9.174;2022-12-07T01:13:27;6.90;99.90
674;DHT22;319;48.764;9.174;2022-12-07T01:15:57;6.90;99.90
674;DHT22;319;48.764;9.174;2022-12-07T01:18:25;6.90;99.90
674;DHT22;319;48.764;9.174;2022-12-07T01:21:02;6.80;99.90
674;DHT22;319;48.764;9.174;2022-12-07T01:23:30;6.80;99.90
674;DHT22;319;48.764;9.174;2022-12-07T01:25:57;6.80;99.90
674;DHT22;319;48.764;9.174;2022-12-07T01:28:24;6.80;99.90
674;DHT22;319;48.764;9.174;2022-12-07T01:30:56;6.70;99.90
674;DHT22;319;48.764;9.174;2022-12-07T01:33:23;6.70;99.90
674;DHT22;319;48.764;9.174;2022-12-07T01:35:49;6.70;99.90
674;DHT22;319;48.764;9.174;2022-12-07T01:38:18;6.60;99.90
674;DHT22;319;48.764;9.174;2022-12-07T01:40:44;6.60;99.90
674;DHT22;319;48.764;9.174;2022-12-07T01:43:15;6.60;99.90
674;DHT22;319;48.764;9.174;2022-12-07T01:45:44;6.60;99.90
674;DHT22;319;48.764;9.174;2022-12-07T01:48:13;6.60;99.90
674;DHT22;319;48.764;9.174;2022-12-07T01:50:42;6.70;99.90
674;DHT22;319;48.764;9.174;2022-12-07T01:53:10;6.70;99.90
674;DHT22;319;48.764;9.174;2022-12-07T01:55:41;6.80;99.90
674;DHT22;319;48.764;9.174;2022-12-07T01:58:09;6.80;99.90
674;DHT22;319;48.764;9.174;2022-12-07T02:00:37;6.80;99.90
674;DHT22;319;48.764;9.174;2022-12-07T02:03:07;6.90;99.90
674;DHT22;319;48.764;9.174;2022-12-07T02:05:37;6.90;99.90
674;DHT22;319;48.764;9.174;2022-12-07T02:08:05;6.90;99.90
674;DHT22;319;48.764;9.174;2022-12-07T02:10:32;6.90;99.90
674;DHT22;319;48.764;9.174;2022-12-07T02:13:03;6.90;99.90
674;DHT22;319;48.764;9.174;2022-12-07T02:15:51;6.80;99.90
674;DHT22;319;48.764;9.174;2022-12-07T02:18:26;6.80;99.90
674;DHT22;319;48.764;9.174;2022-12-07T02:21:02;6.80;99.90
674;DHT22;319;48.764;9.174;2022-12-07T02:23:52;6.70;99.90
674;DHT22;319;48.764;9.174;2022-12-07T02:27:10;6.80;99.90
674;DHT22;319;48.764;9.174;2022-12-07T02:29:48;6.70;99.90
674;DHT22;319;48.764;9.174;2022-12-07T02:32:19;6.70;99.90
674;DHT22;319;48.764;9.174;2022-12-07T02:34:50;6.70;99.90
674;DHT22;319;48.764;9.174;2022-12-07T02:37:25;6.60;99.90
674;DHT22;319;48.764;9.174;2022-12-07T02:39:57;6.60;99.90
674;DHT22;319;48.764;9.174;2022-12-07T02:42:30;6.60;99.90
674;DHT22;319;48.764;9.174;2022-12-07T02:45:01;6.50;99.90
674;DHT22;319;48.764;9.174;2022-12-07T02:47:28;6.60;99.90
674;DHT22;319;48.764;9.174;2022-12-07T02:49:56;6.60;99.90
674;DHT22;319;48.764;9.174;2022-12-07T02:52:22;6.60;99.90
674;DHT22;319;48.764;9.174;2022-12-07T02:54:49;6.70;99.90
674;DHT22;319;48.764;9.174;2022-12-07T02:57:34;6.70;99.90
674;DHT22;319;48.764;9.174;2022-12-07T03:00:08;6.80;99.90
674;DHT22;319;48.764;9.174;2022-12-07T03:02:40;6.70;99.90
674;DHT22;319;48.764;9.174;2022-12-07T03:08:20;6.70;99.90
674;DHT22;319;48.764;9.174;2022-12-07T03:10:56;6.70;99.90
674;DHT22;319;48.764;9.174;2022-12-07T03:13:30;6.70;99.90
674;DHT22;319;48.764;9.174;2022-12-07T03:16:04;6.70;99.90
674;DHT22;319;48.764;9.174;2022-12-07T03:18:37;6.60;99.90
674;DHT22;319;48.764;9.174;2022-12-07T03:21:08;6.70;99.90
674;DHT22;319;48.764;9.174;2022-12-07T03:23:39;6.60;99.90
674;DHT22;319;48.764;9.174;2022-12-07T03:26:10;6.70;99.90
674;DHT22;319;48.764;9.174;2022-12-07T03:28:41;6.80;99.90
674;DHT22;319;48.764;9.174;2022-12-07T03:31:14;7.40;99.90
674;DHT22;319;48.764;9.174;2022-12-07T03:33:46;6.90;99.90
674;DHT22;319;48.764;9.174;2022-12-07T03:36:19;6.80;99.90
674;DHT22;319;48.764;9.174;2022-12-07T03:38:52;6.70;99.90
674;DHT22;319;48.764;9.174;2022-12-07T03:41:22;6.70;99.90
674;DHT22;319;48.764;9.174;2022-12-07T03:43:49;6.80;99.90
674;DHT22;319;48.764;9.174;2022-12-07T03:46:24;6.80;99.90
674;DHT22;319;48.764;9.174;2022-12-07T03:48:58;6.80;99.90
674;DHT22;319;48.764;9.174;2022-12-07T03:51:30;6.80;99.90
674;DHT22;319;48.764;9.174;2022-12-07T03:54:07;6.70;99.90
674;DHT22;319;48.764;9.174;2022-12-07T03:56:36;6.60;99.90
674;DHT22;319;48.764;9.174;2022-12-07T03:59:04;6.60;99.90
674;DHT22;319;48.764;9.174;2022-12-07T04:01:32;6.60;99.90
674;DHT22;319;48.764;9.174;2022-12-07T04:03:59;6.70;99.90
674;DHT22;319;48.764;9.174;2022-12-07T04:06:26;6.70;99.90
674;DHT22;319;48.764;9.174;2022-12-07T04:08:53;6.70;99.90
674;DHT22;319;48.764;9.174;2022-12-07T04:11:19;6.60;99.90
674;DHT22;319;48.764;9.174;2022-12-07T04:13:46;6.70;99.90
674;DHT22;319;48.764;9.174;2022-12-07T04:16:32;6.60;99.90
674;DHT22;319;48.764;9.174;2022-12-07T04:18:58;6.60;99.90
674;DHT22;319;48.764;9.174;2022-12-07T04:21:25;6.50;99.90
674;DHT22;319;48.764;9.174;2022-12-07T04:23:52;6.40;99.90
674;DHT22;319;48.764;9.174;2022-12-07T04:26:19;6.40;99.90
674;DHT22;319;48.764;9.174;2022-12-07T04:28:45;6.40;99.90
674;DHT22;319;48.764;9.174;2022-12-07T04:31:12;6.50;99.90
674;DHT22;319;48.764;9.174;2022-12-07T04:33:40;6.50;99.90
674;DHT22;319;48.764;9.174;2022-12-07T04:36:07;6.40;99.90
674;DHT22;319;48.764;9.174;2022-12-07T04:38:34;6.30;99.90
674;DHT22;319;48.764;9.174;2022-12-07T04:41:04;6.20;99.90
674;DHT22;319;48.764;9.174;2022-12-07T04:43:31;6.20;99.90
674;DHT22;319;48.764;9.174;2022-12-07T04:45:58;6.20;99.90
674;DHT22;319;48.764;9.174;2022-12-07T04:48:25;6.10;99.90
674;DHT22;319;48.764;9.174;2022-12-07T04:50:53;6.10;99.90
674;DHT22;319;48.764;9.174;2022-12-07T04:53:20;6.20;99.90
674;DHT22;319;48.764;9.174;2022-12-07T04:55:47;6.20;99.90
674;DHT22;319;48.764;9.174;2022-12-07T04:58:14;6.20;99.90
674;DHT22;319;48.764;9.174;2022-12-07T05:00:41;6.30;99.90
674;DHT22;319;48.764;9.174;2022-12-07T05:03:07;6.30;99.90
674;DHT22;319;48.764;9.174;2022-12-07T05:05:34;6.30;99.90
674;DHT22;319;48.764;9.174;2022-12-07T05:08:02;6.20;99.70
674;DHT22;319;48.764;9.174;2022-12-07T05:10:29;6.20;99.00
674;DHT22;319;48.764;9.174;2022-12-07T05:12:56;6.20;98.20
674;DHT22;319;48.764;9.174;2022-12-07T05:15:23;6.20;98.20
674;DHT22;319;48.764;9.174;2022-12-07T05:17:49;6.20;97.80
674;DHT22;319;48.764;9.174;2022-12-07T05:20:17;6.30;97.90
674;DHT22;319;48.764;9.174;2022-12-07T05:22:44;6.30;97.70
674;DHT22;319;48.764;9.174;2022-12-07T05:25:12;6.30;97.80
674;DHT22;319;48.764;9.174;2022-12-07T05:27:39;6.30;97.90
674;DHT22;319;48.764;9.174;2022-12-07T05:30:07;6.60;99.90
674;DHT22;319;48.764;9.174;2022-12-07T05:32:34;6.40;98.20
674;DHT22;319;48.764;9.174;2022-12-07T05:35:01;6.50;98.20
674;DHT22;319;48.764;9.174;2022-12-07T05:37:27;6.50;98.30
674;DHT22;319;48.764;9.174;2022-12-07T05:39:54;6.10;99.20
674;DHT22;319;48.764;9.174;2022-12-07T05:42:22;6.40;98.60
674;DHT22;319;48.764;9.174;2022-12-07T05:44:49;6.30;98.80
674;DHT22;319;48.764;9.174;2022-12-07T05:47:16;6.20;99.10
674;DHT22;319;48.764;9.174;2022-12-07T05:49:43;6.10;99.30
674;DHT22;319;48.764;9.174;2022-12-07T05:52:10;6.00;99.50
674;DHT22;319;48.764;9.174;2022-12-07T05:54:36;6.00;99.70
674;DHT22;319;48.764;9.174;2022-12-07T05:57:03;5.90;99.80
674;DHT22;319;48.764;9.174;2022-12-07T05:59:31;5.90;99.90
674;DHT22;319;48.764;9.174;2022-12-07T06:01:59;5.90;99.90
674;DHT22;319;48.764;9.174;2022-12-07T06:04:28;5.80;99.90
674;DHT22;319;48.764;9.174;2022-12-07T06:06:55;5.80;99.90
674;DHT22;319;48.764;9.174;2022-12-07T06:09:24;5.80;99.90
674;DHT22;319;48.764;9.174;2022-12-07T06:11:51;5.70;99.90
674;DHT22;319;48.764;9.174;2022-12-07T06:14:37;5.80;99.90
674;DHT22;319;48.764;9.174;2022-12-07T06:17:04;5.90;99.90
674;DHT22;319;48.764;9.174;2022-12-07T06:19:31;5.90;99.90
674;DHT22;319;48.764;9.174;2022-12-07T06:21:58;5.90;99.90
674;DHT22;319;48.764;9.174;2022-12-07T06:24:25;5.90;99.90
674;DHT22;319;48.764;9.174;2022-12-07T06:26:52;5.90;99.90
674;DHT22;319;48.764;9.174;2022-12-07T06:29:19;5.90;99.90
674;DHT22;319;48.764;9.174;2022-12-07T06:31:47;5.90;99.90
674;DHT22;319;48.764;9.174;2022-12-07T06:34:15;6.00;99.90
674;DHT22;319;48.764;9.174;2022-12-07T06:36:43;6.20;99.90
674;DHT22;319;48.764;9.174;2022-12-07T06:39:11;6.10;99.90
674;DHT22;319;48.764;9.174;2022-12-07T06:41:38;6.10;99.90
674;DHT22;319;48.764;9.174;2022-12-07T06:44:06;6.00;99.90
674;DHT22;319;48.764;9.174;2022-12-07T06:46:33;6.10;99.90
674;DHT22;319;48.764;9.174;2022-12-07T06:49:02;6.10;99.90
674;DHT22;319;48.764;9.174;2022-12-07T06:51:29;6.00;99.90
674;DHT22;319;48.764;9.174;2022-12-07T06:53:58;6.00;99.90
674;DHT22;319;48.764;9.174;2022-12-07T06:56:25;6.00;99.90
674;DHT22;319;48.764;9.174;2022-12-07T06:58:51;6.00;99.90
674;DHT22;319;48.764;9.174;2022-12-07T07:01:18;6.20;99.90
674;DHT22;319;48.764;9.174;2022-12-07T07:03:46;6.00;99.90
674;DHT22;319;48.764;9.174;2022-12-07T07:06:14;6.10;99.90
674;DHT22;319;48.764;9.174;2022-12-07T07:08:41;6.00;99.90
674;DHT22;319;48.764;9.174;2022-12-07T07:11:08;6.00;99.80
674;DHT22;319;48.764;9.174;2022-12-07T07:13:35;6.00;99.70
674;DHT22;319;48.764;9.174;2022-12-07T07:16:03;6.10;99.90
674;DHT22;319;48.764;9.174;2022-12-07T07:18:30;6.10;99.70
674;DHT22;319;48.764;9.174;2022-12-07T07:20:59;6.10;99.70
674;DHT22;319;48.764;9.174;2022-12-07T07:23:27;6.20;99.60
674;DHT22;319;48.764;9.174;2022-12-07T07:25:54;6.20;99.40
674;DHT22;319;48.764;9.174;2022-12-07T07:28:21;6.20;99.20
674;DHT22;319;48.764;9.174;2022-12-07T07:30:48;6.20;98.90
674;DHT22;319;48.764;9.174;2022-12-07T07:33:24;6.10;98.90
674;DHT22;319;48.764;9.174;2022-12-07T07:35:50;6.10;99.10
674;DHT22;319;48.764;9.174;2022-12-07T07:38:17;6.20;99.20
674;DHT22;319;48.764;9.174;2022-12-07T07:40:45;6.10;98.90
674;DHT22;319;48.764;9.174;2022-12-07T07:43:12;6.20;99.00
674;DHT22;319;48.764;9.174;2022-12-07T07:45:39;6.20;98.70
674;DHT22;319;48.764;9.174;2022-12-07T07:48:06;6.30;98.80
674;DHT22;319;48.764;9.174;2022-12-07T07:50:32;6.50;98.70
674;DHT22;319;48.764;9.174;2022-12-07T07:52:59;6.50;98.30
674;DHT22;319;48.764;9.174;2022-12-07T07:55:26;6.50;98.30
674;DHT22;319;48.764;9.174;2022-12-07T07:57:54;6.50;98.30
674;DHT22;319;48.764;9.174;2022-12-07T08:00:22;6.50;98.20
674;DHT22;319;48.764;9.174;2022-12-07T08:02:57;6.70;98.00
674;DHT22;319;48.764;9.174;2022-12-07T08:05:24;6.70;98.20
674;DHT22;319;48.764;9.174;2022-12-07T08:07:51;6.70;98.10
674;DHT22;319;48.764;9.174;2022-12-07T08:10:18;6.70;97.80
674;DHT22;319;48.764;9.174;2022-12-07T08:12:44;6.60;97.90
674;DHT22;319;48.764;9.174;2022-12-07T08:15:30;6.70;98.30
674;DHT22;319;48.764;9.174;2022-12-07T08:17:57;6.70;98.60
674;DHT22;319;48.764;9.174;2022-12-07T08:20:24;6.70;98.70
674;DHT22;319;48.764;9.174;2022-12-07T08:22:51;6.60;99.90
674;DHT22;319;48.764;9.174;2022-12-07T08:25:18;6.80;98.40
674;DHT22;319;48.764;9.174;2022-12-07T08:27:46;7.00;98.60
674;DHT22;319;48.764;9.174;2022-12-07T08:30:13;7.00;98.50
674;DHT22;319;48.764;9.174;2022-12-07T08:32:41;7.00;98.00
674;DHT22;319;48.764;9.174;2022-12-07T08:35:08;7.00;97.70
674;DHT22;319;48.764;9.174;2022-12-07T08:37:36;6.90;97.10
674;DHT22;319;48.764;9.174;2022-12-07T08:40:04;6.90;99.90
674;DHT22;319;48.764;9.174;2022-12-07T08:42:31;6.90;97.20
674;DHT22;319;48.764;9.174;2022-12-07T08:45:04;6.90;97.30
674;DHT22;319;48.764;9.174;2022-12-07T08:47:32;7.00;97.20
674;DHT22;319;48.764;9.174;2022-12-07T08:50:01;7.40;97.50
674;DHT22;319;48.764;9.174;2022-12-07T08:52:31;7.40;96.70
674;DHT22;319;48.764;9.174;2022-12-07T08:54:59;7.40;96.40
674;DHT22;319;48.764;9.174;2022-12-07T08:57:27;7.40;99.90
674;DHT22;319;48.764;9.174;2022-12-07T08:59:54;7.40;99.90
674;DHT22;319;48.764;9.174;2022-12-07T09:02:21;7.70;96.40
674;DHT22;319;48.764;9.174;2022-12-07T09:04:48;7.60;96.30
674;DHT22;319;48.764;9.174;2022-12-07T09:07:16;7.70;96.40
674;DHT22;319;48.764;9.174;2022-12-07T09:09:43;7.80;95.70
674;DHT22;319;48.764;9.174;2022-12-07T09:12:13;7.60;95.50
674;DHT22;319;48.764;9.174;2022-12-07T09:14:39;7.60;95.80
674;DHT22;319;48.764;9.174;2022-12-07T09:17:07;7.80;96.00
674;DHT22;319;48.764;9.174;2022-12-07T09:19:34;7.90;95.60
674;DHT22;319;48.764;9.174;2022-12-07T09:22:03;7.90;95.20
674;DHT22;319;48.764;9.174;2022-12-07T09:24:31;7.90;94.80
674;DHT22;319;48.764;9.174;2022-12-07T09:26:58;7.90;95.10
674;DHT22;319;48.764;9.174;2022-12-07T09:29:27;8.00;95.30
674;DHT22;319;48.764;9.174;2022-12-07T09:31:54;7.90;95.90
674;DHT22;319;48.764;9.174;2022-12-07T09:34:23;8.20;98.00
674;DHT22;319;48.764;9.174;2022-12-07T09:36:51;8.20;95.00
674;DHT22;319;48.764;9.174;2022-12-07T09:39:18;8.30;94.80
674;DHT22;319;48.764;9.174;2022-12-07T09:41:46;8.50;94.50
674;DHT22;319;48.764;9.174;2022-12-07T09:44:17;8.60;94.30
674;DHT22;319;48.764;9.174;2022-12-07T09:46:46;9.00;95.80
674;DHT22;319;48.764;9.174;2022-12-07T09:49:23;8.70;94.10
674;DHT22;319;48.764;9.174;2022-12-07T09:52:01;8.70;94.00
674;DHT22;319;48.764;9.174;2022-12-07T09:54:30;8.70;97.20
674;DHT22;319;48.764;9.174;2022-12-07T09:57:03;8.70;93.70
674;DHT22;319;48.764;9.174;2022-12-07T09:59:31;8.70;93.70
674;DHT22;319;48.764;9.174;2022-12-07T10:02:22;8.60;93.80
674;DHT22;319;48.764;9.174;2022-12-07T10:04:49;8.70;93.90
674;DHT22;319;48.764;9.174;2022-12-07T10:07:22;8.40;94.70
674;DHT22;319;48.764;9.174;2022-12-07T10:09:50;8.60;94.20
674;DHT22;319;48.764;9.174;2022-12-07T10:12:18;9.00;94.10
674;DHT22;319;48.764;9.174;2022-12-07T10:14:55;8.70;94.00
674;DHT22;319;48.764;9.174;2022-12-07T10:17:30;8.80;93.90
674;DHT22;319;48.764;9.174;2022-12-07T10:20:17;8.70;96.40
674;DHT22;319;48.764;9.174;2022-12-07T10:22:59;8.80;94.00
674;DHT22;319;48.764;9.174;2022-12-07T10:25:29;8.70;94.10
674;DHT22;319;48.764;9.174;2022-12-07T10:28:00;8.70;98.60
674;DHT22;319;48.764;9.174;2022-12-07T10:30:28;8.60;94.40
674;DHT22;319;48.764;9.174;2022-12-07T10:32:56;8.60;94.50
674;DHT22;319;48.764;9.174;2022-12-07T10:35:25;8.70;94.60
674;DHT22;319;48.764;9.174;2022-12-07T10:37:58;8.80;94.70
674;DHT22;319;48.764;9.174;2022-12-07T10:40:30;8.70;94.50
674;DHT22;319;48.764;9.174;2022-12-07T10:43:18;8.80;94.50
674;DHT22;319;48.764;9.174;2022-12-07T10:46:07;8.70;94.50
674;DHT22;319;48.764;9.174;2022-12-07T10:48:42;8.70;94.50
674;DHT22;319;48.764;9.174;2022-12-07T10:51:19;8.60;98.50
674;DHT22;319;48.764;9.174;2022-12-07T10:54:00;8.70;94.90
674;DHT22;319;48.764;9.174;2022-12-07T10:56:56;8.60;94.90
674;DHT22;319;48.764;9.174;2022-12-07T11:00:04;8.70;94.90
674;DHT22;319;48.764;9.174;2022-12-07T11:02:41;8.60;95.00
674;DHT22;319;48.764;9.174;2022-12-07T11:05:20;8.60;95.10
674;DHT22;319;48.764;9.174;2022-12-07T11:07:59;8.50;95.30
674;DHT22;319;48.764;9.174;2022-12-07T11:10:33;8.50;95.40
674;DHT22;319;48.764;9.174;2022-12-07T11:16:23;8.70;95.40
674;DHT22;319;48.764;9.174;2022-12-07T11:19:05;8.80;95.20
674;DHT22;319;48.764;9.174;2022-12-07T11:21:41;8.70;95.30
674;DHT22;319;48.764;9.174;2022-12-07T11:24:15;8.70;95.30
674;DHT22;319;48.764;9.174;2022-12-07T11:26:57;8.70;95.20
674;DHT22;319;48.764;9.174;2022-12-07T11:29:43;8.60;95.30
674;DHT22;319;48.764;9.174;2022-12-07T11:32:19;8.60;95.60
674;DHT22;319;48.764;9.174;2022-12-07T11:34:55;8.70;95.70
674;DHT22;319;48.764;9.174;2022-12-07T11:37:27;8.60;95.40
674;DHT22;319;48.764;9.174;2022-12-07T11:40:00;8.70;95.60
674;DHT22;319;48.764;9.174;2022-12-07T11:42:30;8.70;95.50
674;DHT22;319;48.764;9.174;2022-12-07T11:45:10;8.70;95.60
674;DHT22;319;48.764;9.174;2022-12-07T11:47:45;8.70;95.60
674;DHT22;319;48.764;9.174;2022-12-07T11:50:25;8.70;95.70
674;DHT22;319;48.764;9.174;2022-12-07T11:52:56;8.60;95.80
674;DHT22;319;48.764;9.174;2022-12-07T11:55:28;8.60;95.80
674;DHT22;319;48.764;9.174;2022-12-07T11:58:03;8.50;96.00
674;DHT22;319;48.764;9.174;2022-12-07T12:00:30;8.50;96.20
674;DHT22;319;48.764;9.174;2022-12-07T12:03:02;8.40;96.30
674;DHT22;319;48.764;9.174;2022-12-07T12:05:30;8.40;96.60
674;DHT22;319;48.764;9.174;2022-12-07T12:08:04;8.30;96.70
674;DHT22;319;48.764;9.174;2022-12-07T12:10:40;8.50;96.60
674;DHT22;319;48.764;9.174;2022-12-07T12:13:40;8.70;96.70
674;DHT22;319;48.764;9.174;2022-12-07T12:16:29;8.50;96.70
674;DHT22;319;48.764;9.174;2022-12-07T12:19:17;8.20;97.60
674;DHT22;319;48.764;9.174;2022-12-07T12:21:47;8.00;98.40
674;DHT22;319;48.764;9.174;2022-12-07T12:24:18;7.90;98.70
674;DHT22;319;48.764;9.174;2022-12-07T12:26:51;7.90;99.10
674;DHT22;319;48.764;9.174;2022-12-07T12:29:26;7.80;99.40
674;DHT22;319;48.764;9.174;2022-12-07T12:32:12;8.00;99.60
674;DHT22;319;48.764;9.174;2022-12-07T12:34:58;8.00;99.40
674;DHT22;319;48.764;9.174;2022-12-07T12:37:44;8.00;99.40
674;DHT22;319;48.764;9.174;2022-12-07T12:40:40;8.10;99.40
674;DHT22;319;48.764;9.174;2022-12-07T12:49:35;8.00;99.00
674;DHT22;319;48.764;9.174;2022-12-07T12:58:42;7.80;99.20
674;DHT22;319;48.764;9.174;2022-12-07T13:01:44;7.60;99.40
674;DHT22;319;48.764;9.174;2022-12-07T13:04:48;7.50;99.50
674;DHT22;319;48.764;9.174;2022-12-07T13:10:38;7.40;99.70
674;DHT22;319;48.764;9.174;2022-12-07T13:13:29;7.50;99.70
674;DHT22;319;48.764;9.174;2022-12-07T13:18:58;7.90;99.20
674;DHT22;319;48.764;9.174;2022-12-07T13:21:43;8.00;98.80
674;DHT22;319;48.764;9.174;2022-12-07T13:24:12;8.10;98.50
674;DHT22;319;48.764;9.174;2022-12-07T13:26:42;8.00;98.30
674;DHT22;319;48.764;9.174;2022-12-07T13:29:12;8.00;98.50
674;DHT22;319;48.764;9.174;2022-12-07T13:31:40;8.00;98.50
674;DHT22;319;48.764;9.174;2022-12-07T13:34:30;8.00;98.20
674;DHT22;319;48.764;9.174;2022-12-07T13:36:59;8.10;98.20
674;DHT22;319;48.764;9.174;2022-12-07T13:39:28;8.10;97.90
674;DHT22;319;48.764;9.174;2022-12-07T13:41:56;8.10;97.90
674;DHT22;319;48.764;9.174;2022-12-07T13:44:25;8.10;97.90
674;DHT22;319;48.764;9.174;2022-12-07T13:46:59;8.20;97.90
674;DHT22;319;48.764;9.174;2022-12-07T13:49:28;8.00;97.70
674;DHT22;319;48.764;9.174;2022-12-07T13:52:14;8.10;98.00
674;DHT22;319;48.764;9.174;2022-12-07T13:54:47;8.20;97.80
674;DHT22;319;48.764;9.174;2022-12-07T13:57:14;8.20;97.60
674;DHT22;319;48.764;9.174;2022-12-07T13:59:42;8.20;97.50
674;DHT22;319;48.764;9.174;2022-12-07T14:02:19;8.50;97.70
674;DHT22;319;48.764;9.174;2022-12-07T14:04:49;8.10;97.30
674;DHT22;319;48.764;9.174;2022-12-07T14:07:23;8.00;97.50
674;DHT22;319;48.764;9.174;2022-12-07T14:09:56;8.40;97.70
674;DHT22;319;48.764;9.174;2022-12-07T14:12:24;8.20;97.10
674;DHT22;319;48.764;9.174;2022-12-07T14:14:52;9.30;98.30
674;DHT22;319;48.764;9.174;2022-12-07T14:17:22;8.80;97.80
674;DHT22;319;48.764;9.174;2022-12-07T14:19:51;8.70;99.90
674;DHT22;319;48.764;9.174;2022-12-07T14:22:25;8.30;97.30
674;DHT22;319;48.764;9.174;2022-12-07T14:27:54;8.40;96.70
674;DHT22;319;48.764;9.174;2022-12-07T14:30:25;8.80;96.90
674;DHT22;319;48.764;9.174;2022-12-07T14:32:54;8.40;96.60
674;DHT22;319;48.764;9.174;2022-12-07T14:35:21;8.40;96.50
674;DHT22;319;48.764;9.174;2022-12-07T14:37:52;8.40;96.50
674;DHT22;319;48.764;9.174;2022-12-07T14:40:20;8.40;96.60
674;DHT22;319;48.764;9.174;2022-12-07T14:42:51;8.40;96.50
674;DHT22;319;48.764;9.174;2022-12-07T14:45:20;8.40;96.70
674;DHT22;319;48.764;9.174;2022-12-07T14:47:47;8.30;96.60
674;DHT22;319;48.764;9.174;2022-12-07T14:50:16;8.40;96.70
674;DHT22;319;48.764;9.174;2022-12-07T14:52:45;8.30;96.90
674;DHT22;319;48.764;9.174;2022-12-07T14:55:19;8.30;97.00
674;DHT22;319;48.764;9.174;2022-12-07T14:57:47;7.90;97.30
674;DHT22;319;48.764;9.174;2022-12-07T15:00:15;7.80;97.90
674;DHT22;319;48.764;9.174;2022-12-07T15:02:45;7.80;98.10
674;DHT22;319;48.764;9.174;2022-12-07T15:05:12;7.90;98.10
674;DHT22;319;48.764;9.174;2022-12-07T15:07:39;8.60;98.30
674;DHT22;319;48.764;9.174;2022-12-07T15:10:09;7.90;99.90
674;DHT22;319;48.764;9.174;2022-12-07T15:12:40;8.00;97.90
674;DHT22;319;48.764;9.174;2022-12-07T15:15:08;8.00;98.00
674;DHT22;319;48.764;9.174;2022-12-07T15:17:38;8.00;98.00
674;DHT22;319;48.764;9.174;2022-12-07T15:20:08;8.20;99.90
674;DHT22;319;48.764;9.174;2022-12-07T15:22:36;8.00;98.00
674;DHT22;319;48.764;9.174;2022-12-07T15:25:04;8.00;98.30
674;DHT22;319;48.764;9.174;2022-12-07T15:27:31;8.30;99.90
674;DHT22;319;48.764;9.174;2022-12-07T15:30:00;7.40;99.60
674;DHT22;319;48.764;9.174;2022-12-07T15:32:27;8.80;99.90
674;DHT22;319;48.764;9.174;2022-12-07T15:34:53;7.70;99.00
674;DHT22;319;48.764;9.174;2022-12-07T15:37:20;7.60;98.60
674;DHT22;319;48.764;9.174;2022-12-07T15:39:47;7.60;99.10
674;DHT22;319;48.764;9.174;2022-12-07T15:42:14;7.60;98.80
674;DHT22;319;48.764;9.174;2022-12-07T15:44:40;7.50;98.80
674;DHT22;319;48.764;9.174;2022-12-07T15:47:26;7.50;98.80
674;DHT22;319;48.764;9.174;2022-12-07T15:49:55;7.30;99.90
674;DHT22;319;48.764;9.174;2022-12-07T15:54:50;7.40;98.90
674;DHT22;319;48.764;9.174;2022-12-07T15:57:17;8.80;99.90
674;DHT22;319;48.764;9.174;2022-12-07T15:59:44;7.40;99.50
674;DHT22;319;48.764;9.174;2022-12-07T16:02:13;7.40;99.50
674;DHT22;319;48.764;9.174;2022-12-07T16:04:42;7.60;99.70
674;DHT22;319;48.764;9.174;2022-12-07T16:07:09;7.40;99.80
674;DHT22;319;48.764;9.174;2022-12-07T16:09:36;7.30;99.60
674;DHT22;319;48.764;9.174;2022-12-07T16:12:04;7.40;99.60
674;DHT22;319;48.764;9.174;2022-12-07T16:14:31;7.40;99.30
674;DHT22;319;48.764;9.174;2022-12-07T16:16:58;7.40;99.20
674;DHT22;319;48.764;9.174;2022-12-07T16:19:25;7.70;99.50
674;DHT22;319;48.764;9.174;2022-12-07T16:21:53;7.80;99.50
674;DHT22;319;48.764;9.174;2022-12-07T16:24:40;7.30;99.20
674;DHT22;319;48.764;9.174;2022-12-07T16:27:08;7.30;99.80
674;DHT22;319;48.764;9.174;2022-12-07T16:29:34;7.30;99.60
674;DHT22;319;48.764;9.174;2022-12-07T16:32:01;7.30;99.20
674;DHT22;319;48.764;9.174;2022-12-07T16:34:32;7.30;99.20
674;DHT22;319;48.764;9.174;2022-12-07T16:37:00;7.20;99.50
674;DHT22;319;48.764;9.174;2022-12-07T16:39:27;7.20;99.40
674;DHT22;319;48.764;9.174;2022-12-07T16:41:54;7.20;99.40
674;DHT22;319;48.764;9.174;2022-12-07T16:44:25;7.20;99.40
674;DHT22;319;48.764;9.174;2022-12-07T16:46:52;6.90;99.80
674;DHT22;319;48.764;9.174;2022-12-07T16:49:19;7.00;99.70
674;DHT22;319;48.764;9.174;2022-12-07T16:51:46;7.10;99.80
674;DHT22;319;48.764;9.174;2022-12-07T16:54:17;7.00;99.60
674;DHT22;319;48.764;9.174;2022-12-07T16:56:44;7.20;99.90
674;DHT22;319;48.764;9.174;2022-12-07T16:59:10;6.90;99.90
674;DHT22;319;48.764;9.174;2022-12-07T17:01:37;6.80;99.90
674;DHT22;319;48.764;9.174;2022-12-07T17:04:04;6.80;99.90
674;DHT22;319;48.764;9.174;2022-12-07T17:06:31;6.80;99.90
674;DHT22;319;48.764;9.174;2022-12-07T17:08:58;6.70;99.90
674;DHT22;319;48.764;9.174;2022-12-07T17:11:28;6.70;99.90
674;DHT22;319;48.764;9.174;2022-12-07T17:13:56;6.60;99.90
674;DHT22;319;48.764;9.174;2022-12-07T17:16:41;6.50;99.90
674;DHT22;319;48.764;9.174;2022-12-07T17:19:10;6.50;99.90
674;DHT22;319;48.764;9.174;2022-12-07T17:21:37;6.40;99.90
674;DHT22;319;48.764;9.174;2022-12-07T17:24:07;6.40;99.90
674;DHT22;319;48.764;9.174;2022-12-07T17:26:36;6.40;99.90
674;DHT22;319;48.764;9.174;2022-12-07T17:29:04;6.30;99.90
674;DHT22;319;48.764;9.174;2022-12-07T17:31:33;6.30;99.90
674;DHT22;319;48.764;9.174;2022-12-07T17:34:02;6.20;99.90
674;DHT22;319;48.764;9.174;2022-12-07T17:36:31;6.20;99.90
674;DHT22;319;48.764;9.174;2022-12-07T17:38:58;6.20;99.90
674;DHT22;319;48.764;9.174;2022-12-07T17:41:26;6.30;99.90
674;DHT22;319;48.764;9.174;2022-12-07T17:44:14;6.30;99.90
674;DHT22;319;48.764;9.174;2022-12-07T17:46:44;6.30;99.90